sensor_id;sensor_type;location;lat;lon;timestamp;pressure;altitude;pressure_sealevel;temperature
64947;BMP280;51469;52.150;4.682;2022-09-09T00:04:27;100932.72;;;21.11
64947;BMP280;51469;52.150;4.682;2022-09-09T00:10:13;100927.34;;;21.04
64947;BMP280;51469;52.150;4.682;2022-09-09T00:15:55;100934.75;;;20.98
64947;BMP280;51469;52.150;4.682;2022-09-09T00:21:07;100929.50;;;21.00
64947;BMP280;51469;52.150;4.682;2022-09-09T00:23:40;100925.63;;;20.85
64947;BMP280;51469;52.150;4.682;2022-09-09T00:26:16;100926.94;;;20.93
64947;BMP280;51469;52.150;4.682;2022-09-09T00:31:54;100926.38;;;20.98
64947;BMP280;51469;52.150;4.682;2022-09-09T00:34:24;100918.69;;;21.02
64947;BMP280;51469;52.150;4.682;2022-09-09T00:36:52;100921.59;;;20.98
64947;BMP280;51469;52.150;4.682;2022-09-09T00:39:31;100927.84;;;20.90
64947;BMP280;51469;52.150;4.682;2022-09-09T00:42:17;100926.25;;;20.89
64947;BMP280;51469;52.150;4.682;2022-09-09T00:44:58;100927.84;;;20.90
64947;BMP280;51469;52.150;4.682;2022-09-09T00:48:13;100913.13;;;20.89
64947;BMP280;51469;52.150;4.682;2022-09-09T00:58:24;100918.94;;;20.70
64947;BMP280;51469;52.150;4.682;2022-09-09T01:00:53;100917.38;;;20.69
64947;BMP280;51469;52.150;4.682;2022-09-09T01:14:16;100909.56;;;20.64
64947;BMP280;51469;52.150;4.682;2022-09-09T01:16:45;100909.25;;;20.62
64947;BMP280;51469;52.150;4.682;2022-09-09T01:19:18;100913.13;;;20.52
64947;BMP280;51469;52.150;4.682;2022-09-09T01:21:54;100912.94;;;20.59
64947;BMP280;51469;52.150;4.682;2022-09-09T01:27:19;100900.44;;;20.51
64947;BMP280;51469;52.150;4.682;2022-09-09T01:29:46;100900.75;;;20.40
64947;BMP280;51469;52.150;4.682;2022-09-09T01:32:44;100895.28;;;20.37
64947;BMP280;51469;52.150;4.682;2022-09-09T01:35:26;100892.38;;;20.40
64947;BMP280;51469;52.150;4.682;2022-09-09T01:37:53;100895.97;;;20.41
64947;BMP280;51469;52.150;4.682;2022-09-09T01:40:18;100894.38;;;20.40
64947;BMP280;51469;52.150;4.682;2022-09-09T01:42:44;100883.25;;;20.40
64947;BMP280;51469;52.150;4.682;2022-09-09T01:45:10;100895.28;;;20.37
64947;BMP280;51469;52.150;4.682;2022-09-09T01:47:35;100882.69;;;20.32
64947;BMP280;51469;52.150;4.682;2022-09-09T01:50:02;100882.38;;;20.30
64947;BMP280;51469;52.150;4.682;2022-09-09T01:52:29;100870.97;;;20.25
64947;BMP280;51469;52.150;4.682;2022-09-09T01:54:54;100875.66;;;20.28
64947;BMP280;51469;52.150;4.682;2022-09-09T01:57:25;100872.56;;;20.26
64947;BMP280;51469;52.150;4.682;2022-09-09T02:00:06;100880.34;;;20.31
64947;BMP280;51469;52.150;4.682;2022-09-09T02:05:23;100883.34;;;20.36
64947;BMP280;51469;52.150;4.682;2022-09-09T02:08:00;100879.38;;;20.37
64947;BMP280;51469;52.150;4.682;2022-09-09T02:10:37;100881.78;;;20.35
64947;BMP280;51469;52.150;4.682;2022-09-09T02:13:10;100878.22;;;20.35
64947;BMP280;51469;52.150;4.682;2022-09-09T02:15:49;100878.13;;;20.26
64947;BMP280;51469;52.150;4.682;2022-09-09T02:18:24;100869.09;;;20.22
64947;BMP280;51469;52.150;4.682;2022-09-09T02:20:53;100871.19;;;20.18
64947;BMP280;51469;52.150;4.682;2022-09-09T02:23:19;100868.28;;;20.09
64947;BMP280;51469;52.150;4.682;2022-09-09T02:25:45;100868.19;;;20.12
64947;BMP280;51469;52.150;4.682;2022-09-09T02:28:12;100861.94;;;20.08
64947;BMP280;51469;52.150;4.682;2022-09-09T02:30:39;100866.75;;;20.08
64947;BMP280;51469;52.150;4.682;2022-09-09T02:33:07;100863.59;;;20.06
64947;BMP280;51469;52.150;4.682;2022-09-09T02:35:34;100860.47;;;20.04
64947;BMP280;51469;52.150;4.682;2022-09-09T02:38:05;100854.34;;;19.96
64947;BMP280;51469;52.150;4.682;2022-09-09T02:40:31;100863.47;;;19.97
64947;BMP280;51469;52.150;4.682;2022-09-09T02:42:57;100846.84;;;19.93
64947;BMP280;51469;52.150;4.682;2022-09-09T02:45:30;100841.09;;;19.88
64947;BMP280;51469;52.150;4.682;2022-09-09T02:48:20;100842.44;;;19.96
64947;BMP280;51469;52.150;4.682;2022-09-09T02:51:04;100846.44;;;19.95
64947;BMP280;51469;52.150;4.682;2022-09-09T02:53:59;100842.75;;;19.98
64947;BMP280;51469;52.150;4.682;2022-09-09T02:56:32;100848.88;;;19.93
64947;BMP280;51469;52.150;4.682;2022-09-09T02:59:04;100837.72;;;19.93
64947;BMP280;51469;52.150;4.682;2022-09-09T03:01:30;100835.31;;;19.95
64947;BMP280;51469;52.150;4.682;2022-09-09T03:03:55;100844.84;;;19.94
64947;BMP280;51469;52.150;4.682;2022-09-09T03:06:20;100846.84;;;19.93
64947;BMP280;51469;52.150;4.682;2022-09-09T03:08:46;100835.59;;;19.84
64947;BMP280;51469;52.150;4.682;2022-09-09T03:11:13;100839.72;;;19.80
64947;BMP280;51469;52.150;4.682;2022-09-09T03:13:39;100835.38;;;19.79
64947;BMP280;51469;52.150;4.682;2022-09-09T03:16:04;100828.66;;;19.76
64947;BMP280;51469;52.150;4.682;2022-09-09T03:18:30;100836.81;;;19.71
64947;BMP280;51469;52.150;4.682;2022-09-09T03:20:57;100830.88;;;19.69
64947;BMP280;51469;52.150;4.682;2022-09-09T03:23:23;100842.47;;;19.67
64947;BMP280;51469;52.150;4.682;2022-09-09T03:25:49;100835.34;;;19.66
64947;BMP280;51469;52.150;4.682;2022-09-09T03:28:15;100845.03;;;19.62
64947;BMP280;51469;52.150;4.682;2022-09-09T03:30:40;100838.78;;;19.58
64947;BMP280;51469;52.150;4.682;2022-09-09T03:33:05;100830.75;;;19.60
64947;BMP280;51469;52.150;4.682;2022-09-09T03:35:31;100834.00;;;19.58
64947;BMP280;51469;52.150;4.682;2022-09-09T03:37:56;100833.19;;;19.58
64947;BMP280;51469;52.150;4.682;2022-09-09T03:40:22;100836.84;;;19.55
64947;BMP280;51469;52.150;4.682;2022-09-09T03:42:47;100831.28;;;19.55
64947;BMP280;51469;52.150;4.682;2022-09-09T03:45:13;100831.06;;;19.49
64947;BMP280;51469;52.150;4.682;2022-09-09T03:47:39;100826.28;;;19.50
64947;BMP280;51469;52.150;4.682;2022-09-09T03:50:06;100828.00;;;19.44
64947;BMP280;51469;52.150;4.682;2022-09-09T03:52:38;100831.34;;;19.39
64947;BMP280;51469;52.150;4.682;2022-09-09T03:55:05;100828.22;;;19.37
64947;BMP280;51469;52.150;4.682;2022-09-09T03:57:31;100834.53;;;19.37
64947;BMP280;51469;52.150;4.682;2022-09-09T03:59:56;100831.44;;;19.35
64947;BMP280;51469;52.150;4.682;2022-09-09T04:02:23;100826.66;;;19.36
64947;BMP280;51469;52.150;4.682;2022-09-09T04:04:48;100830.66;;;19.35
64947;BMP280;51469;52.150;4.682;2022-09-09T04:07:13;100824.28;;;19.34
64947;BMP280;51469;52.150;4.682;2022-09-09T04:09:39;100820.41;;;19.32
64947;BMP280;51469;52.150;4.682;2022-09-09T04:12:04;100805.34;;;19.29
64947;BMP280;51469;52.150;4.682;2022-09-09T04:17:48;100812.59;;;19.27
64947;BMP280;51469;52.150;4.682;2022-09-09T04:20:14;100818.25;;;19.23
64947;BMP280;51469;52.150;4.682;2022-09-09T04:22:40;100811.81;;;19.26
64947;BMP280;51469;52.150;4.682;2022-09-09T04:25:06;100814.22;;;19.24
64947;BMP280;51469;52.150;4.682;2022-09-09T04:27:31;100811.66;;;19.17
64947;BMP280;51469;52.150;4.682;2022-09-09T04:29:57;100798.53;;;19.18
64947;BMP280;51469;52.150;4.682;2022-09-09T04:32:23;100795.22;;;19.23
64947;BMP280;51469;52.150;4.682;2022-09-09T04:34:49;100798.44;;;19.21
64947;BMP280;51469;52.150;4.682;2022-09-09T04:37:14;100804.00;;;19.21
64947;BMP280;51469;52.150;4.682;2022-09-09T04:39:40;100791.25;;;19.24
64947;BMP280;51469;52.150;4.682;2022-09-09T04:42:05;100794.03;;;19.24
64947;BMP280;51469;52.150;4.682;2022-09-09T04:44:30;100797.09;;;19.26
64947;BMP280;51469;52.150;4.682;2022-09-09T04:46:56;100803.03;;;19.28
64947;BMP280;51469;52.150;4.682;2022-09-09T04:49:21;100802.94;;;19.31
64947;BMP280;51469;52.150;4.682;2022-09-09T04:51:49;100793.78;;;19.31
64947;BMP280;51469;52.150;4.682;2022-09-09T04:54:14;100797.47;;;19.28
64947;BMP280;51469;52.150;4.682;2022-09-09T04:56:40;100798.31;;;19.25
64947;BMP280;51469;52.150;4.682;2022-09-09T04:59:07;100794.84;;;19.37
64947;BMP280;51469;52.150;4.682;2022-09-09T05:01:32;100791.72;;;19.35
64947;BMP280;51469;52.150;4.682;2022-09-09T05:03:59;100791.59;;;19.38
64947;BMP280;51469;52.150;4.682;2022-09-09T05:06:24;100779.25;;;19.39
64947;BMP280;51469;52.150;4.682;2022-09-09T05:08:50;100779.03;;;19.34
64947;BMP280;51469;52.150;4.682;2022-09-09T05:13:44;100782.47;;;19.38
64947;BMP280;51469;52.150;4.682;2022-09-09T05:16:10;100781.47;;;19.32
64947;BMP280;51469;52.150;4.682;2022-09-09T05:18:39;100785.19;;;19.41
64947;BMP280;51469;52.150;4.682;2022-09-09T05:21:05;100779.69;;;19.38
64947;BMP280;51469;52.150;4.682;2022-09-09T05:23:32;100777.06;;;19.47
64947;BMP280;51469;52.150;4.682;2022-09-09T05:25:59;100772.25;;;19.47
64947;BMP280;51469;52.150;4.682;2022-09-09T05:28:25;100785.19;;;19.54
64947;BMP280;51469;52.150;4.682;2022-09-09T05:30:58;100783.09;;;19.58
64947;BMP280;51469;52.150;4.682;2022-09-09T05:33:24;100782.41;;;19.54
64947;BMP280;51469;52.150;4.682;2022-09-09T05:36:07;100783.09;;;19.58
64947;BMP280;51469;52.150;4.682;2022-09-09T05:38:33;100778.22;;;19.62
64947;BMP280;51469;52.150;4.682;2022-09-09T05:41:00;100780.47;;;19.67
64947;BMP280;51469;52.150;4.682;2022-09-09T05:43:26;100769.63;;;19.69
64947;BMP280;51469;52.150;4.682;2022-09-09T05:46:19;100770.31;;;19.73
64947;BMP280;51469;52.150;4.682;2022-09-09T05:48:47;100778.66;;;19.73
64947;BMP280;51469;52.150;4.682;2022-09-09T05:51:20;100779.16;;;19.84
64947;BMP280;51469;52.150;4.682;2022-09-09T05:53:46;100778.38;;;19.96
64947;BMP280;51469;52.150;4.682;2022-09-09T05:58:43;100780.03;;;20.31
64947;BMP280;51469;52.150;4.682;2022-09-09T06:01:11;100781.81;;;20.50
64947;BMP280;51469;52.150;4.682;2022-09-09T06:03:39;100780.22;;;20.74
64947;BMP280;51469;52.150;4.682;2022-09-09T06:06:07;100780.06;;;20.77
64947;BMP280;51469;52.150;4.682;2022-09-09T06:08:34;100788.41;;;20.90
64947;BMP280;51469;52.150;4.682;2022-09-09T06:11:08;100782.69;;;20.93
64947;BMP280;51469;52.150;4.682;2022-09-09T06:13:34;100784.53;;;21.09
64947;BMP280;51469;52.150;4.682;2022-09-09T06:16:00;100782.91;;;20.99
64947;BMP280;51469;52.150;4.682;2022-09-09T06:18:26;100790.75;;;21.13
64947;BMP280;51469;52.150;4.682;2022-09-09T06:21:03;100785.91;;;21.26
64947;BMP280;51469;52.150;4.682;2022-09-09T06:23:29;100782.19;;;21.29
64947;BMP280;51469;52.150;4.682;2022-09-09T06:26:02;100788.16;;;21.40
64947;BMP280;51469;52.150;4.682;2022-09-09T06:28:31;100788.03;;;21.22
64947;BMP280;51469;52.150;4.682;2022-09-09T06:31:03;100784.03;;;21.23
64947;BMP280;51469;52.150;4.682;2022-09-09T06:33:34;100790.25;;;21.27
64947;BMP280;51469;52.150;4.682;2022-09-09T06:36:00;100786.84;;;21.32
64947;BMP280;51469;52.150;4.682;2022-09-09T06:38:26;100785.69;;;21.42
64947;BMP280;51469;52.150;4.682;2022-09-09T06:40:57;100791.81;;;21.49
64947;BMP280;51469;52.150;4.682;2022-09-09T06:43:24;100794.16;;;21.51
64947;BMP280;51469;52.150;4.682;2022-09-09T06:48:19;100790.75;;;21.56
64947;BMP280;51469;52.150;4.682;2022-09-09T06:50:44;100803.13;;;21.46
64947;BMP280;51469;52.150;4.682;2022-09-09T06:53:10;100785.94;;;21.56
64947;BMP280;51469;52.150;4.682;2022-09-09T06:55:35;100799.84;;;21.69
64947;BMP280;51469;52.150;4.682;2022-09-09T06:58:00;100791.50;;;21.78
64947;BMP280;51469;52.150;4.682;2022-09-09T07:00:26;100795.53;;;21.77
64947;BMP280;51469;52.150;4.682;2022-09-09T07:02:52;100792.03;;;21.85
64947;BMP280;51469;52.150;4.682;2022-09-09T07:05:17;100792.66;;;21.89
64947;BMP280;51469;52.150;4.682;2022-09-09T07:07:42;100791.59;;;21.96
64947;BMP280;51469;52.150;4.682;2022-09-09T07:10:08;100800.94;;;22.02
64947;BMP280;51469;52.150;4.682;2022-09-09T07:12:33;100794.81;;;21.94
64947;BMP280;51469;52.150;4.682;2022-09-09T07:14:59;100797.16;;;21.96
64947;BMP280;51469;52.150;4.682;2022-09-09T07:17:25;100790.97;;;21.92
64947;BMP280;51469;52.150;4.682;2022-09-09T07:19:50;100786.00;;;21.96
64947;BMP280;51469;52.150;4.682;2022-09-09T07:22:15;100791.97;;;22.07
64947;BMP280;51469;52.150;4.682;2022-09-09T07:24:41;100795.97;;;22.06
64947;BMP280;51469;52.150;4.682;2022-09-09T07:27:06;100799.09;;;22.08
64947;BMP280;51469;52.150;4.682;2022-09-09T07:29:32;100783.25;;;22.14
64947;BMP280;51469;52.150;4.682;2022-09-09T07:31:57;100787.97;;;22.26
64947;BMP280;51469;52.150;4.682;2022-09-09T07:34:23;100783.91;;;22.18
64947;BMP280;51469;52.150;4.682;2022-09-09T07:36:49;100792.34;;;22.36
64947;BMP280;51469;52.150;4.682;2022-09-09T07:39:14;100786.47;;;22.43
64947;BMP280;51469;52.150;4.682;2022-09-09T07:41:42;100787.56;;;22.54
64947;BMP280;51469;52.150;4.682;2022-09-09T07:44:10;100786.94;;;22.50
64947;BMP280;51469;52.150;4.682;2022-09-09T07:46:36;100789.16;;;22.64
64947;BMP280;51469;52.150;4.682;2022-09-09T07:49:02;100791.66;;;22.71
64947;BMP280;51469;52.150;4.682;2022-09-09T07:51:31;100797.06;;;22.75
64947;BMP280;51469;52.150;4.682;2022-09-09T07:54:00;100790.88;;;22.71
64947;BMP280;51469;52.150;4.682;2022-09-09T07:56:27;100788.69;;;22.66
64947;BMP280;51469;52.150;4.682;2022-09-09T07:58:54;100787.72;;;22.69
64947;BMP280;51469;52.150;4.682;2022-09-09T08:01:24;100789.28;;;22.70
64947;BMP280;51469;52.150;4.682;2022-09-09T08:04:01;100792.41;;;22.72
64947;BMP280;51469;52.150;4.682;2022-09-09T08:06:33;100789.28;;;22.70
64947;BMP280;51469;52.150;4.682;2022-09-09T08:08:59;100793.38;;;22.78
64947;BMP280;51469;52.150;4.682;2022-09-09T08:11:27;100791.47;;;22.75
64947;BMP280;51469;52.150;4.682;2022-09-09T08:13:53;100793.47;;;22.65
64947;BMP280;51469;52.150;4.682;2022-09-09T08:16:20;100789.94;;;22.74
64947;BMP280;51469;52.150;4.682;2022-09-09T08:18:50;100795.81;;;22.67
64947;BMP280;51469;52.150;4.682;2022-09-09T08:21:22;100795.81;;;22.67
64947;BMP280;51469;52.150;4.682;2022-09-09T08:23:51;100795.53;;;22.65
64947;BMP280;51469;52.150;4.682;2022-09-09T08:26:19;100792.75;;;22.65
64947;BMP280;51469;52.150;4.682;2022-09-09T08:28:47;100791.66;;;22.71
64947;BMP280;51469;52.150;4.682;2022-09-09T08:31:16;100789.13;;;22.73
64947;BMP280;51469;52.150;4.682;2022-09-09T08:33:43;100790.88;;;22.71
64947;BMP280;51469;52.150;4.682;2022-09-09T08:36:13;100795.66;;;22.70
64947;BMP280;51469;52.150;4.682;2022-09-09T08:38:41;100791.00;;;22.49
64947;BMP280;51469;52.150;4.682;2022-09-09T08:43:43;100789.75;;;22.59
64947;BMP280;51469;52.150;4.682;2022-09-09T08:51:07;100803.59;;;22.63
64947;BMP280;51469;52.150;4.682;2022-09-09T08:53:44;100804.25;;;22.76
64947;BMP280;51469;52.150;4.682;2022-09-09T08:56:14;100798.66;;;22.76
64947;BMP280;51469;52.150;4.682;2022-09-09T08:58:49;100805.47;;;22.83
64947;BMP280;51469;52.150;4.682;2022-09-09T09:09:12;100806.09;;;23.05
64947;BMP280;51469;52.150;4.682;2022-09-09T09:12:00;100802.69;;;22.92
64947;BMP280;51469;52.150;4.682;2022-09-09T09:14:31;100802.69;;;22.92
64947;BMP280;51469;52.150;4.682;2022-09-09T09:17:35;100806.88;;;22.88
64947;BMP280;51469;52.150;4.682;2022-09-09T09:19:58;100811.66;;;22.70
64947;BMP280;51469;52.150;4.682;2022-09-09T09:22:42;100812.72;;;22.45
64947;BMP280;51469;52.150;4.682;2022-09-09T09:30:29;100817.28;;;22.12
64947;BMP280;51469;52.150;4.682;2022-09-09T09:33:01;100816.31;;;21.97
64947;BMP280;51469;52.150;4.682;2022-09-09T09:35:28;100822.03;;;22.03
64947;BMP280;51469;52.150;4.682;2022-09-09T09:37:54;100809.00;;;22.00
64947;BMP280;51469;52.150;4.682;2022-09-09T09:40:21;100811.94;;;21.96
64947;BMP280;51469;52.150;4.682;2022-09-09T09:42:54;100818.91;;;21.92
64947;BMP280;51469;52.150;4.682;2022-09-09T09:45:28;100808.00;;;21.85
64947;BMP280;51469;52.150;4.682;2022-09-09T09:48:02;100812.03;;;21.84
64947;BMP280;51469;52.150;4.682;2022-09-09T09:50:29;100811.44;;;21.89
64947;BMP280;51469;52.150;4.682;2022-09-09T09:53:03;100815.75;;;21.90
64947;BMP280;51469;52.150;4.682;2022-09-09T09:55:33;100810.81;;;21.94
64947;BMP280;51469;52.150;4.682;2022-09-09T09:58:04;100803.84;;;21.98
64947;BMP280;51469;52.150;4.682;2022-09-09T10:00:30;100796.56;;;22.31
64947;BMP280;51469;52.150;4.682;2022-09-09T10:02:55;100795.13;;;22.36
64947;BMP280;51469;52.150;4.682;2022-09-09T10:05:26;100801.06;;;22.38
64947;BMP280;51469;52.150;4.682;2022-09-09T10:08:08;100789.59;;;22.45
64947;BMP280;51469;52.150;4.682;2022-09-09T10:11:30;100796.75;;;22.55
64947;BMP280;51469;52.150;4.682;2022-09-09T10:21:18;100796.16;;;22.78
64947;BMP280;51469;52.150;4.682;2022-09-09T10:35:33;100769.97;;;23.43
64947;BMP280;51469;52.150;4.682;2022-09-09T10:40:32;100785.72;;;23.82
64947;BMP280;51469;52.150;4.682;2022-09-09T10:43:07;100786.06;;;23.75
64947;BMP280;51469;52.150;4.682;2022-09-09T10:52:14;100788.88;;;23.66
64947;BMP280;51469;52.150;4.682;2022-09-09T10:57:34;100785.63;;;24.00
64947;BMP280;51469;52.150;4.682;2022-09-09T11:00:05;100793.22;;;24.09
64947;BMP280;51469;52.150;4.682;2022-09-09T11:02:33;100793.63;;;24.16
64947;BMP280;51469;52.150;4.682;2022-09-09T11:07:39;100785.97;;;23.93
64947;BMP280;51469;52.150;4.682;2022-09-09T11:10:17;100785.66;;;23.91
64947;BMP280;51469;52.150;4.682;2022-09-09T11:12:46;100793.16;;;23.85
64947;BMP280;51469;52.150;4.682;2022-09-09T11:15:28;100797.94;;;23.61
64947;BMP280;51469;52.150;4.682;2022-09-09T11:18:01;100787.38;;;23.47
64947;BMP280;51469;52.150;4.682;2022-09-09T11:20:27;100790.22;;;23.38
64947;BMP280;51469;52.150;4.682;2022-09-09T11:25:39;100795.84;;;23.11
64947;BMP280;51469;52.150;4.682;2022-09-09T11:30:59;100800.50;;;22.61
64947;BMP280;51469;52.150;4.682;2022-09-09T11:33:57;100796.16;;;22.60
64947;BMP280;51469;52.150;4.682;2022-09-09T11:44:39;100803.31;;;22.79
64947;BMP280;51469;52.150;4.682;2022-09-09T11:47:29;100797.38;;;22.77
64947;BMP280;51469;52.150;4.682;2022-09-09T11:52:44;100793.38;;;22.95
64947;BMP280;51469;52.150;4.682;2022-09-09T11:58:02;100790.47;;;23.58
64947;BMP280;51469;52.150;4.682;2022-09-09T12:00:37;100783.25;;;23.75
64947;BMP280;51469;52.150;4.682;2022-09-09T12:03:04;100781.06;;;23.79
64947;BMP280;51469;52.150;4.682;2022-09-09T12:05:40;100781.66;;;23.83
64947;BMP280;51469;52.150;4.682;2022-09-09T12:08:09;100777.16;;;23.86
64947;BMP280;51469;52.150;4.682;2022-09-09T12:10:40;100784.94;;;23.82
64947;BMP280;51469;52.150;4.682;2022-09-09T12:13:26;100781.41;;;23.72
64947;BMP280;51469;52.150;4.682;2022-09-09T12:15:57;100793.00;;;23.47
64947;BMP280;51469;52.150;4.682;2022-09-09T12:18:32;100793.31;;;23.31
64947;BMP280;51469;52.150;4.682;2022-09-09T12:24:13;100804.41;;;23.08
64947;BMP280;51469;52.150;4.682;2022-09-09T12:26:47;100796.63;;;22.85
64947;BMP280;51469;52.150;4.682;2022-09-09T12:29:26;100801.13;;;22.74
64947;BMP280;51469;52.150;4.682;2022-09-09T12:32:01;100803.94;;;22.65
64947;BMP280;51469;52.150;4.682;2022-09-09T12:34:40;100801.56;;;22.63
64947;BMP280;51469;52.150;4.682;2022-09-09T12:37:33;100789.91;;;22.56
64947;BMP280;51469;52.150;4.682;2022-09-09T12:40:02;100793.16;;;22.63
64947;BMP280;51469;52.150;4.682;2022-09-09T12:42:29;100797.06;;;22.75
64947;BMP280;51469;52.150;4.682;2022-09-09T12:44:56;100796.78;;;22.90
64947;BMP280;51469;52.150;4.682;2022-09-09T12:47:29;100791.97;;;23.00
64947;BMP280;51469;52.150;4.682;2022-09-09T12:49:55;100798.00;;;23.07
64947;BMP280;51469;52.150;4.682;2022-09-09T12:52:31;100802.34;;;23.17
64947;BMP280;51469;52.150;4.682;2022-09-09T12:54:59;100804.88;;;23.15
64947;BMP280;51469;52.150;4.682;2022-09-09T12:57:26;100811.56;;;23.00
64947;BMP280;51469;52.150;4.682;2022-09-09T13:00:10;100803.75;;;23.13
64947;BMP280;51469;52.150;4.682;2022-09-09T13:02:45;100814.34;;;23.00
64947;BMP280;51469;52.150;4.682;2022-09-09T13:05:22;100812.00;;;22.98
64947;BMP280;51469;52.150;4.682;2022-09-09T13:07:48;100795.81;;;23.02
64947;BMP280;51469;52.150;4.682;2022-09-09T13:10:20;100801.91;;;23.19
64947;BMP280;51469;52.150;4.682;2022-09-09T13:12:46;100795.50;;;23.27
64947;BMP280;51469;52.150;4.682;2022-09-09T13:15:19;100796.72;;;23.35
64947;BMP280;51469;52.150;4.682;2022-09-09T13:17:53;100808.13;;;23.32
64947;BMP280;51469;52.150;4.682;2022-09-09T13:20:21;100805.78;;;23.30
64947;BMP280;51469;52.150;4.682;2022-09-09T13:22:48;100798.31;;;23.36
64947;BMP280;51469;52.150;4.682;2022-09-09T13:25:28;100804.22;;;23.29
64947;BMP280;51469;52.150;4.682;2022-09-09T13:30:25;100797.69;;;23.14
64947;BMP280;51469;52.150;4.682;2022-09-09T13:35:29;100808.28;;;23.28
64947;BMP280;51469;52.150;4.682;2022-09-09T13:37:54;100808.69;;;23.45
64947;BMP280;51469;52.150;4.682;2022-09-09T13:40:22;100809.63;;;23.51
64947;BMP280;51469;52.150;4.682;2022-09-09T13:42:51;100810.41;;;23.51
64947;BMP280;51469;52.150;4.682;2022-09-09T13:45:19;100812.84;;;23.67
64947;BMP280;51469;52.150;4.682;2022-09-09T13:47:48;100817.50;;;23.79
64947;BMP280;51469;52.150;4.682;2022-09-09T13:50:21;100807.66;;;23.75
64947;BMP280;51469;52.150;4.682;2022-09-09T13:52:47;100802.03;;;23.84
64947;BMP280;51469;52.150;4.682;2022-09-09T13:55:14;100801.56;;;23.85
64947;BMP280;51469;52.150;4.682;2022-09-09T13:58:02;100799.41;;;23.89
64947;BMP280;51469;52.150;4.682;2022-09-09T14:00:32;100803.63;;;24.08
64947;BMP280;51469;52.150;4.682;2022-09-09T14:02:57;100790.38;;;23.85
64947;BMP280;51469;52.150;4.682;2022-09-09T14:05:22;100789.75;;;23.81
64947;BMP280;51469;52.150;4.682;2022-09-09T14:07:49;100785.56;;;23.77
64947;BMP280;51469;52.150;4.682;2022-09-09T14:10:14;100787.94;;;24.02
64947;BMP280;51469;52.150;4.682;2022-09-09T14:16:02;100799.56;;;23.86
64947;BMP280;51469;52.150;4.682;2022-09-09T14:18:27;100795.75;;;23.56
64947;BMP280;51469;52.150;4.682;2022-09-09T14:20:52;100804.47;;;23.49
64947;BMP280;51469;52.150;4.682;2022-09-09T14:23:18;100804.38;;;23.26
64947;BMP280;51469;52.150;4.682;2022-09-09T14:25:44;100809.81;;;23.20
64947;BMP280;51469;52.150;4.682;2022-09-09T14:28:11;100803.78;;;23.22
64947;BMP280;51469;52.150;4.682;2022-09-09T14:30:38;100809.19;;;23.25
64947;BMP280;51469;52.150;4.682;2022-09-09T14:33:05;100805.31;;;23.23
64947;BMP280;51469;52.150;4.682;2022-09-09T14:35:30;100802.38;;;23.26
64947;BMP280;51469;52.150;4.682;2022-09-09T14:37:55;100807.03;;;23.29
64947;BMP280;51469;52.150;4.682;2022-09-09T14:40:21;100808.88;;;23.32
64947;BMP280;51469;52.150;4.682;2022-09-09T14:42:46;100812.91;;;23.31
64947;BMP280;51469;52.150;4.682;2022-09-09T14:45:12;100807.03;;;23.29
64947;BMP280;51469;52.150;4.682;2022-09-09T14:47:37;100804.53;;;23.22
64947;BMP280;51469;52.150;4.682;2022-09-09T14:50:04;100804.88;;;23.15
64947;BMP280;51469;52.150;4.682;2022-09-09T14:52:30;100823.53;;;23.18
64947;BMP280;51469;52.150;4.682;2022-09-09T14:54:55;100819.47;;;23.10
64947;BMP280;51469;52.150;4.682;2022-09-09T14:57:21;100817.94;;;23.18
64947;BMP280;51469;52.150;4.682;2022-09-09T14:59:46;100821.16;;;23.35
64947;BMP280;51469;52.150;4.682;2022-09-09T15:02:11;100825.63;;;23.50
64947;BMP280;51469;52.150;4.682;2022-09-09T15:04:38;100810.69;;;23.62
64947;BMP280;51469;52.150;4.682;2022-09-09T15:07:03;100817.75;;;23.81
64947;BMP280;51469;52.150;4.682;2022-09-09T15:09:28;100821.06;;;24.12
64947;BMP280;51469;52.150;4.682;2022-09-09T15:11:54;100821.94;;;24.27
64947;BMP280;51469;52.150;4.682;2022-09-09T15:14:20;100823.72;;;24.39
64947;BMP280;51469;52.150;4.682;2022-09-09T15:16:45;100825.16;;;24.58
64947;BMP280;51469;52.150;4.682;2022-09-09T15:19:11;100825.22;;;24.73
64947;BMP280;51469;52.150;4.682;2022-09-09T15:21:39;100818.81;;;24.72
64947;BMP280;51469;52.150;4.682;2022-09-09T15:24:05;100812.53;;;24.77
64947;BMP280;51469;52.150;4.682;2022-09-09T15:26:33;100813.03;;;24.76
64947;BMP280;51469;52.150;4.682;2022-09-09T15:28:59;100807.97;;;24.65
64947;BMP280;51469;52.150;4.682;2022-09-09T15:31:27;100822.78;;;24.66
64947;BMP280;51469;52.150;4.682;2022-09-09T15:33:58;100818.81;;;24.72
64947;BMP280;51469;52.150;4.682;2022-09-09T15:36:46;100819.78;;;24.69
64947;BMP280;51469;52.150;4.682;2022-09-09T15:39:16;100819.38;;;24.62
64947;BMP280;51469;52.150;4.682;2022-09-09T15:41:43;100813.69;;;24.47
64947;BMP280;51469;52.150;4.682;2022-09-09T15:44:10;100820.44;;;24.41
64947;BMP280;51469;52.150;4.682;2022-09-09T15:46:42;100825.56;;;24.19
64947;BMP280;51469;52.150;4.682;2022-09-09T15:51:41;100829.66;;;24.09
64947;BMP280;51469;52.150;4.682;2022-09-09T15:54:08;100837.66;;;23.92
64947;BMP280;51469;52.150;4.682;2022-09-09T15:56:34;100833.91;;;23.95
64947;BMP280;51469;52.150;4.682;2022-09-09T15:59:01;100836.16;;;23.82
64947;BMP280;51469;52.150;4.682;2022-09-09T16:01:28;100835.19;;;23.85
64947;BMP280;51469;52.150;4.682;2022-09-09T16:03:55;100832.84;;;23.84
64947;BMP280;51469;52.150;4.682;2022-09-09T16:06:23;100828.63;;;23.88
64947;BMP280;51469;52.150;4.682;2022-09-09T16:08:51;100831.94;;;23.87
64947;BMP280;51469;52.150;4.682;2022-09-09T16:11:20;100836.59;;;23.81
64947;BMP280;51469;52.150;4.682;2022-09-09T16:13:46;100828.03;;;23.84
64947;BMP280;51469;52.150;4.682;2022-09-09T16:16:14;100836.94;;;23.83
64947;BMP280;51469;52.150;4.682;2022-09-09T16:18:42;100837.38;;;23.81
64947;BMP280;51469;52.150;4.682;2022-09-09T16:21:13;100846.72;;;23.78
64947;BMP280;51469;52.150;4.682;2022-09-09T16:23:38;100842.06;;;23.84
64947;BMP280;51469;52.150;4.682;2022-09-09T16:26:04;100840.53;;;23.74
64947;BMP280;51469;52.150;4.682;2022-09-09T16:28:30;100842.34;;;23.86